sensor_id;sensor_type;location;lat;lon;timestamp;P1;durP1;ratioP1;P2;durP2;ratioP2
15358;SDS011;7779;49.596;11.070;2022-09-03T00:00:11;0.60;;;0.50;;
15358;SDS011;7779;49.596;11.070;2022-09-03T00:02:44;1.30;;;0.70;;
15358;SDS011;7779;49.596;11.070;2022-09-03T00:10:48;1.60;;;0.50;;
15358;SDS011;7779;49.596;11.070;2022-09-03T00:13:43;1.93;;;0.70;;
15358;SDS011;7779;49.596;11.070;2022-09-03T00:16:23;0.87;;;0.50;;
15358;SDS011;7779;49.596;11.070;2022-09-03T00:19:00;0.90;;;0.50;;
15358;SDS011;7779;49.596;11.070;2022-09-03T00:21:41;0.87;;;0.53;;
15358;SDS011;7779;49.596;11.070;2022-09-03T00:24:38;0.80;;;0.63;;
15358;SDS011;7779;49.596;11.070;2022-09-03T00:27:09;0.93;;;0.57;;
15358;SDS011;7779;49.596;11.070;2022-09-03T00:29:49;0.63;;;0.60;;
15358;SDS011;7779;49.596;11.070;2022-09-03T00:35:28;1.30;;;0.67;;
15358;SDS011;7779;49.596;11.070;2022-09-03T00:38:00;0.93;;;0.50;;
15358;SDS011;7779;49.596;11.070;2022-09-03T00:43:37;0.50;;;0.50;;
15358;SDS011;7779;49.596;11.070;2022-09-03T00:46:33;1.80;;;0.60;;
15358;SDS011;7779;49.596;11.070;2022-09-03T00:52:43;0.80;;;0.50;;
15358;SDS011;7779;49.596;11.070;2022-09-03T00:55:26;1.50;;;0.67;;
15358;SDS011;7779;49.596;11.070;2022-09-03T01:01:07;0.70;;;0.70;;
15358;SDS011;7779;49.596;11.070;2022-09-03T01:06:49;0.70;;;0.70;;
15358;SDS011;7779;49.596;11.070;2022-09-03T01:12:17;1.00;;;0.67;;
15358;SDS011;7779;49.596;11.070;2022-09-03T01:17:37;1.93;;;0.67;;
15358;SDS011;7779;49.596;11.070;2022-09-03T01:20:37;1.00;;;0.67;;
15358;SDS011;7779;49.596;11.070;2022-09-03T01:26:53;2.17;;;0.70;;
15358;SDS011;7779;49.596;11.070;2022-09-03T01:30:11;0.60;;;0.60;;
15358;SDS011;7779;49.596;11.070;2022-09-03T01:32:51;1.90;;;0.80;;
15358;SDS011;7779;49.596;11.070;2022-09-03T01:35:43;2.07;;;0.87;;
15358;SDS011;7779;49.596;11.070;2022-09-03T01:41:18;0.70;;;0.70;;
15358;SDS011;7779;49.596;11.070;2022-09-03T01:44:47;1.90;;;0.70;;
15358;SDS011;7779;49.596;11.070;2022-09-03T01:51:02;0.90;;;0.77;;
15358;SDS011;7779;49.596;11.070;2022-09-03T02:02:37;1.17;;;0.70;;
15358;SDS011;7779;49.596;11.070;2022-09-03T02:07:49;0.77;;;0.60;;
15358;SDS011;7779;49.596;11.070;2022-09-03T02:10:29;1.03;;;0.70;;
15358;SDS011;7779;49.596;11.070;2022-09-03T02:13:10;1.53;;;0.80;;
15358;SDS011;7779;49.596;11.070;2022-09-03T02:15:50;1.13;;;0.87;;
15358;SDS011;7779;49.596;11.070;2022-09-03T02:18:22;0.80;;;0.70;;
15358;SDS011;7779;49.596;11.070;2022-09-03T02:20:54;0.80;;;0.73;;
15358;SDS011;7779;49.596;11.070;2022-09-03T02:23:23;0.80;;;0.70;;
15358;SDS011;7779;49.596;11.070;2022-09-03T02:25:53;1.00;;;0.70;;
15358;SDS011;7779;49.596;11.070;2022-09-03T02:28:22;1.00;;;0.67;;
15358;SDS011;7779;49.596;11.070;2022-09-03T02:30:49;0.53;;;0.50;;
15358;SDS011;7779;49.596;11.070;2022-09-03T02:33:15;1.87;;;0.70;;
15358;SDS011;7779;49.596;11.070;2022-09-03T02:35:41;0.70;;;0.60;;
15358;SDS011;7779;49.596;11.070;2022-09-03T02:38:28;0.80;;;0.67;;
15358;SDS011;7779;49.596;11.070;2022-09-03T02:40:54;0.60;;;0.60;;
15358;SDS011;7779;49.596;11.070;2022-09-03T02:43:24;1.63;;;0.70;;
15358;SDS011;7779;49.596;11.070;2022-09-03T02:46:17;0.83;;;0.60;;
15358;SDS011;7779;49.596;11.070;2022-09-03T02:48:49;2.00;;;0.70;;
15358;SDS011;7779;49.596;11.070;2022-09-03T02:51:15;2.20;;;0.50;;
15358;SDS011;7779;49.596;11.070;2022-09-03T02:53:41;1.50;;;0.80;;
15358;SDS011;7779;49.596;11.070;2022-09-03T02:56:07;0.80;;;0.70;;
15358;SDS011;7779;49.596;11.070;2022-09-03T02:58:33;0.77;;;0.70;;
15358;SDS011;7779;49.596;11.070;2022-09-03T03:00:59;0.67;;;0.67;;
15358;SDS011;7779;49.596;11.070;2022-09-03T03:03:25;0.97;;;0.87;;
15358;SDS011;7779;49.596;11.070;2022-09-03T03:05:54;1.07;;;0.80;;
15358;SDS011;7779;49.596;11.070;2022-09-03T03:08:25;1.37;;;0.70;;
15358;SDS011;7779;49.596;11.070;2022-09-03T03:10:54;0.73;;;0.67;;
15358;SDS011;7779;49.596;11.070;2022-09-03T03:13:23;0.60;;;0.60;;
15358;SDS011;7779;49.596;11.070;2022-09-03T03:15:56;1.10;;;0.70;;
15358;SDS011;7779;49.596;11.070;2022-09-03T03:18:24;1.20;;;0.53;;
15358;SDS011;7779;49.596;11.070;2022-09-03T03:20:50;1.23;;;0.80;;
15358;SDS011;7779;49.596;11.070;2022-09-03T03:23:16;1.30;;;0.70;;
15358;SDS011;7779;49.596;11.070;2022-09-03T03:25:42;0.80;;;0.60;;
15358;SDS011;7779;49.596;11.070;2022-09-03T03:28:08;1.50;;;0.80;;
15358;SDS011;7779;49.596;11.070;2022-09-03T03:30:36;1.93;;;0.70;;
15358;SDS011;7779;49.596;11.070;2022-09-03T03:33:04;1.00;;;0.90;;
15358;SDS011;7779;49.596;11.070;2022-09-03T03:35:31;0.90;;;0.80;;
15358;SDS011;7779;49.596;11.070;2022-09-03T03:37:58;1.10;;;0.80;;
15358;SDS011;7779;49.596;11.070;2022-09-03T03:40:24;0.90;;;0.60;;
15358;SDS011;7779;49.596;11.070;2022-09-03T03:42:50;1.23;;;0.63;;
15358;SDS011;7779;49.596;11.070;2022-09-03T03:45:17;0.87;;;0.77;;
15358;SDS011;7779;49.596;11.070;2022-09-03T03:47:44;1.23;;;0.90;;
15358;SDS011;7779;49.596;11.070;2022-09-03T03:50:09;1.30;;;0.80;;
15358;SDS011;7779;49.596;11.070;2022-09-03T03:52:35;1.40;;;0.63;;
15358;SDS011;7779;49.596;11.070;2022-09-03T03:55:01;1.50;;;0.87;;
15358;SDS011;7779;49.596;11.070;2022-09-03T03:57:28;1.60;;;0.70;;
15358;SDS011;7779;49.596;11.070;2022-09-03T03:59:56;0.83;;;0.77;;
15358;SDS011;7779;49.596;11.070;2022-09-03T04:02:22;1.57;;;0.87;;
15358;SDS011;7779;49.596;11.070;2022-09-03T04:04:48;0.97;;;0.73;;
15358;SDS011;7779;49.596;11.070;2022-09-03T04:07:13;1.07;;;0.77;;
15358;SDS011;7779;49.596;11.070;2022-09-03T04:09:39;0.70;;;0.70;;
15358;SDS011;7779;49.596;11.070;2022-09-03T04:12:05;1.83;;;0.70;;
15358;SDS011;7779;49.596;11.070;2022-09-03T04:14:32;0.93;;;0.73;;
15358;SDS011;7779;49.596;11.070;2022-09-03T04:16:59;1.20;;;0.60;;
15358;SDS011;7779;49.596;11.070;2022-09-03T04:19:27;1.40;;;0.73;;
15358;SDS011;7779;49.596;11.070;2022-09-03T04:21:54;1.00;;;0.80;;
15358;SDS011;7779;49.596;11.070;2022-09-03T04:24:20;2.70;;;0.93;;
15358;SDS011;7779;49.596;11.070;2022-09-03T04:26:46;1.70;;;1.00;;
15358;SDS011;7779;49.596;11.070;2022-09-03T04:29:14;1.57;;;0.90;;
15358;SDS011;7779;49.596;11.070;2022-09-03T04:31:40;1.37;;;0.90;;
15358;SDS011;7779;49.596;11.070;2022-09-03T04:34:29;0.93;;;0.80;;
15358;SDS011;7779;49.596;11.070;2022-09-03T04:36:55;0.60;;;0.60;;
15358;SDS011;7779;49.596;11.070;2022-09-03T04:39:23;1.17;;;0.80;;
15358;SDS011;7779;49.596;11.070;2022-09-03T04:41:49;2.43;;;0.80;;
15358;SDS011;7779;49.596;11.070;2022-09-03T04:44:15;1.13;;;0.70;;
15358;SDS011;7779;49.596;11.070;2022-09-03T04:46:41;0.70;;;0.70;;
15358;SDS011;7779;49.596;11.070;2022-09-03T04:49:07;1.00;;;0.90;;
15358;SDS011;7779;49.596;11.070;2022-09-03T04:51:34;1.27;;;0.80;;
15358;SDS011;7779;49.596;11.070;2022-09-03T04:54:02;1.67;;;0.70;;
15358;SDS011;7779;49.596;11.070;2022-09-03T04:56:29;1.33;;;0.80;;
15358;SDS011;7779;49.596;11.070;2022-09-03T04:58:59;1.07;;;0.80;;
15358;SDS011;7779;49.596;11.070;2022-09-03T05:01:32;0.70;;;0.70;;
15358;SDS011;7779;49.596;11.070;2022-09-03T05:04:00;1.10;;;0.73;;
15358;SDS011;7779;49.596;11.070;2022-09-03T05:06:29;0.90;;;0.80;;
15358;SDS011;7779;49.596;11.070;2022-09-03T05:08:55;1.10;;;0.80;;
15358;SDS011;7779;49.596;11.070;2022-09-03T05:11:22;1.00;;;0.87;;
15358;SDS011;7779;49.596;11.070;2022-09-03T05:13:51;1.50;;;0.80;;
15358;SDS011;7779;49.596;11.070;2022-09-03T05:16:20;0.90;;;0.70;;
15358;SDS011;7779;49.596;11.070;2022-09-03T05:18:50;1.03;;;0.77;;
15358;SDS011;7779;49.596;11.070;2022-09-03T05:21:18;0.93;;;0.77;;
15358;SDS011;7779;49.596;11.070;2022-09-03T05:23:46;0.73;;;0.73;;
15358;SDS011;7779;49.596;11.070;2022-09-03T05:26:18;0.80;;;0.70;;
15358;SDS011;7779;49.596;11.070;2022-09-03T05:28:52;1.03;;;0.80;;
15358;SDS011;7779;49.596;11.070;2022-09-03T05:31:20;0.83;;;0.80;;
15358;SDS011;7779;49.596;11.070;2022-09-03T05:33:51;1.20;;;0.73;;
15358;SDS011;7779;49.596;11.070;2022-09-03T05:36:23;0.80;;;0.67;;
15358;SDS011;7779;49.596;11.070;2022-09-03T05:38:51;1.93;;;0.70;;
15358;SDS011;7779;49.596;11.070;2022-09-03T05:41:19;2.37;;;0.80;;
15358;SDS011;7779;49.596;11.070;2022-09-03T05:43:49;0.70;;;0.70;;
15358;SDS011;7779;49.596;11.070;2022-09-03T05:46:20;1.30;;;1.00;;
15358;SDS011;7779;49.596;11.070;2022-09-03T05:48:57;1.73;;;0.87;;
15358;SDS011;7779;49.596;11.070;2022-09-03T05:51:26;1.07;;;0.73;;
15358;SDS011;7779;49.596;11.070;2022-09-03T05:53:53;1.37;;;0.80;;
15358;SDS011;7779;49.596;11.070;2022-09-03T05:56:20;0.67;;;0.60;;
15358;SDS011;7779;49.596;11.070;2022-09-03T05:58:50;0.70;;;0.60;;
15358;SDS011;7779;49.596;11.070;2022-09-03T06:03:55;1.20;;;0.80;;
15358;SDS011;7779;49.596;11.070;2022-09-03T06:06:27;1.13;;;0.63;;
15358;SDS011;7779;49.596;11.070;2022-09-03T06:08:56;0.73;;;0.60;;
15358;SDS011;7779;49.596;11.070;2022-09-03T06:11:26;0.93;;;0.73;;
15358;SDS011;7779;49.596;11.070;2022-09-03T06:13:55;0.90;;;0.83;;
15358;SDS011;7779;49.596;11.070;2022-09-03T06:16:22;3.60;;;0.90;;
15358;SDS011;7779;49.596;11.070;2022-09-03T06:18:49;1.47;;;0.80;;
15358;SDS011;7779;49.596;11.070;2022-09-03T06:21:15;1.53;;;0.90;;
15358;SDS011;7779;49.596;11.070;2022-09-03T06:23:41;1.90;;;0.77;;
15358;SDS011;7779;49.596;11.070;2022-09-03T06:26:08;1.63;;;0.70;;
15358;SDS011;7779;49.596;11.070;2022-09-03T06:28:36;1.00;;;0.80;;
15358;SDS011;7779;49.596;11.070;2022-09-03T06:31:08;2.33;;;0.93;;
15358;SDS011;7779;49.596;11.070;2022-09-03T06:33:37;1.33;;;0.70;;
15358;SDS011;7779;49.596;11.070;2022-09-03T06:36:06;1.23;;;0.67;;
15358;SDS011;7779;49.596;11.070;2022-09-03T06:38:35;1.03;;;0.73;;
15358;SDS011;7779;49.596;11.070;2022-09-03T06:41:21;1.60;;;1.00;;
15358;SDS011;7779;49.596;11.070;2022-09-03T06:43:54;3.00;;;1.00;;
15358;SDS011;7779;49.596;11.070;2022-09-03T06:46:27;1.10;;;1.00;;
15358;SDS011;7779;49.596;11.070;2022-09-03T06:48:56;2.87;;;0.90;;
15358;SDS011;7779;49.596;11.070;2022-09-03T06:51:22;1.30;;;0.80;;
15358;SDS011;7779;49.596;11.070;2022-09-03T06:53:52;1.57;;;0.93;;
15358;SDS011;7779;49.596;11.070;2022-09-03T06:56:27;0.83;;;0.80;;
15358;SDS011;7779;49.596;11.070;2022-09-03T06:58:54;1.53;;;0.87;;
15358;SDS011;7779;49.596;11.070;2022-09-03T07:01:24;1.27;;;0.80;;
15358;SDS011;7779;49.596;11.070;2022-09-03T07:03:56;1.00;;;0.60;;
15358;SDS011;7779;49.596;11.070;2022-09-03T07:06:28;1.53;;;0.90;;
15358;SDS011;7779;49.596;11.070;2022-09-03T07:09:06;0.80;;;0.70;;
15358;SDS011;7779;49.596;11.070;2022-09-03T07:11:35;0.67;;;0.63;;
15358;SDS011;7779;49.596;11.070;2022-09-03T07:14:03;0.80;;;0.67;;
15358;SDS011;7779;49.596;11.070;2022-09-03T07:16:31;2.13;;;0.87;;
15358;SDS011;7779;49.596;11.070;2022-09-03T07:19:00;1.03;;;0.80;;
15358;SDS011;7779;49.596;11.070;2022-09-03T07:21:28;1.37;;;0.90;;
15358;SDS011;7779;49.596;11.070;2022-09-03T07:23:58;0.93;;;0.70;;
15358;SDS011;7779;49.596;11.070;2022-09-03T07:26:27;0.70;;;0.60;;
15358;SDS011;7779;49.596;11.070;2022-09-03T07:28:56;1.23;;;0.90;;
15358;SDS011;7779;49.596;11.070;2022-09-03T07:31:26;0.90;;;0.70;;
15358;SDS011;7779;49.596;11.070;2022-09-03T07:36:30;1.53;;;0.80;;
15358;SDS011;7779;49.596;11.070;2022-09-03T07:39:05;1.70;;;0.70;;
15358;SDS011;7779;49.596;11.070;2022-09-03T07:41:31;0.70;;;0.70;;
15358;SDS011;7779;49.596;11.070;2022-09-03T07:43:57;0.87;;;0.70;;
15358;SDS011;7779;49.596;11.070;2022-09-03T07:46:29;0.93;;;0.53;;
15358;SDS011;7779;49.596;11.070;2022-09-03T07:48:58;0.63;;;0.60;;
15358;SDS011;7779;49.596;11.070;2022-09-03T07:51:32;0.83;;;0.70;;
15358;SDS011;7779;49.596;11.070;2022-09-03T07:54:01;0.90;;;0.70;;
15358;SDS011;7779;49.596;11.070;2022-09-03T07:56:31;1.03;;;0.67;;
15358;SDS011;7779;49.596;11.070;2022-09-03T07:58:59;1.00;;;0.90;;
15358;SDS011;7779;49.596;11.070;2022-09-03T08:01:27;0.63;;;0.63;;
15358;SDS011;7779;49.596;11.070;2022-09-03T08:03:55;1.13;;;0.70;;
15358;SDS011;7779;49.596;11.070;2022-09-03T08:06:25;1.03;;;0.70;;
15358;SDS011;7779;49.596;11.070;2022-09-03T08:08:56;2.20;;;0.77;;
15358;SDS011;7779;49.596;11.070;2022-09-03T08:11:28;1.20;;;0.80;;
15358;SDS011;7779;49.596;11.070;2022-09-03T08:13:59;0.80;;;0.70;;
15358;SDS011;7779;49.596;11.070;2022-09-03T08:16:40;1.30;;;0.80;;
15358;SDS011;7779;49.596;11.070;2022-09-03T08:19:13;1.93;;;0.80;;
15358;SDS011;7779;49.596;11.070;2022-09-03T08:21:42;1.17;;;0.80;;
15358;SDS011;7779;49.596;11.070;2022-09-03T08:24:09;0.90;;;0.63;;
15358;SDS011;7779;49.596;11.070;2022-09-03T08:26:37;0.80;;;0.70;;
15358;SDS011;7779;49.596;11.070;2022-09-03T08:29:06;0.70;;;0.60;;
15358;SDS011;7779;49.596;11.070;2022-09-03T08:31:34;0.70;;;0.70;;
15358;SDS011;7779;49.596;11.070;2022-09-03T08:34:01;0.77;;;0.77;;
15358;SDS011;7779;49.596;11.070;2022-09-03T08:36:31;1.03;;;0.70;;
15358;SDS011;7779;49.596;11.070;2022-09-03T08:39:03;1.27;;;0.90;;
15358;SDS011;7779;49.596;11.070;2022-09-03T08:44:30;2.23;;;0.60;;
15358;SDS011;7779;49.596;11.070;2022-09-03T08:53:00;1.27;;;0.80;;
15358;SDS011;7779;49.596;11.070;2022-09-03T08:58:26;0.70;;;0.60;;
15358;SDS011;7779;49.596;11.070;2022-09-03T09:04:29;2.03;;;0.80;;
15358;SDS011;7779;49.596;11.070;2022-09-03T09:07:19;1.17;;;0.80;;
15358;SDS011;7779;49.596;11.070;2022-09-03T09:10:12;0.90;;;0.80;;
15358;SDS011;7779;49.596;11.070;2022-09-03T09:13:05;0.97;;;0.70;;
15358;SDS011;7779;49.596;11.070;2022-09-03T09:16:18;1.97;;;1.00;;
15358;SDS011;7779;49.596;11.070;2022-09-03T09:22:01;0.90;;;0.63;;
15358;SDS011;7779;49.596;11.070;2022-09-03T09:24:44;0.90;;;0.80;;
15358;SDS011;7779;49.596;11.070;2022-09-03T09:27:13;0.80;;;0.80;;
15358;SDS011;7779;49.596;11.070;2022-09-03T09:29:41;1.43;;;0.70;;
15358;SDS011;7779;49.596;11.070;2022-09-03T09:32:12;0.93;;;0.70;;
15358;SDS011;7779;49.596;11.070;2022-09-03T09:34:41;2.30;;;0.87;;
15358;SDS011;7779;49.596;11.070;2022-09-03T09:37:11;0.90;;;0.80;;
15358;SDS011;7779;49.596;11.070;2022-09-03T09:39:40;1.27;;;0.90;;
15358;SDS011;7779;49.596;11.070;2022-09-03T09:42:20;0.70;;;0.70;;
15358;SDS011;7779;49.596;11.070;2022-09-03T09:44:47;1.07;;;0.80;;
15358;SDS011;7779;49.596;11.070;2022-09-03T09:47:37;2.90;;;0.93;;
15358;SDS011;7779;49.596;11.070;2022-09-03T09:50:14;1.47;;;1.00;;
15358;SDS011;7779;49.596;11.070;2022-09-03T09:52:44;1.23;;;0.87;;
15358;SDS011;7779;49.596;11.070;2022-09-03T09:55:14;1.83;;;0.80;;
15358;SDS011;7779;49.596;11.070;2022-09-03T09:57:44;1.30;;;0.60;;
15358;SDS011;7779;49.596;11.070;2022-09-03T10:00:11;1.30;;;0.70;;
15358;SDS011;7779;49.596;11.070;2022-09-03T10:02:47;1.37;;;0.80;;
15358;SDS011;7779;49.596;11.070;2022-09-03T10:05:22;1.50;;;1.10;;
15358;SDS011;7779;49.596;11.070;2022-09-03T10:10:26;2.13;;;0.93;;
15358;SDS011;7779;49.596;11.070;2022-09-03T10:13:12;0.80;;;0.80;;
15358;SDS011;7779;49.596;11.070;2022-09-03T10:19:05;1.80;;;0.70;;
15358;SDS011;7779;49.596;11.070;2022-09-03T10:24:40;0.70;;;0.70;;
15358;SDS011;7779;49.596;11.070;2022-09-03T10:27:22;2.20;;;1.10;;
15358;SDS011;7779;49.596;11.070;2022-09-03T10:29:48;2.23;;;0.90;;
15358;SDS011;7779;49.596;11.070;2022-09-03T10:49:38;1.33;;;0.63;;
15358;SDS011;7779;49.596;11.070;2022-09-03T10:52:09;1.43;;;0.80;;
15358;SDS011;7779;49.596;11.070;2022-09-03T11:01:11;1.30;;;0.80;;
15358;SDS011;7779;49.596;11.070;2022-09-03T11:06:36;1.27;;;1.17;;
15358;SDS011;7779;49.596;11.070;2022-09-03T11:09:18;1.30;;;0.90;;
15358;SDS011;7779;49.596;11.070;2022-09-03T11:11:52;0.83;;;0.80;;
15358;SDS011;7779;49.596;11.070;2022-09-03T11:14:31;1.10;;;0.90;;
15358;SDS011;7779;49.596;11.070;2022-09-03T11:17:08;3.03;;;0.80;;
15358;SDS011;7779;49.596;11.070;2022-09-03T11:19:47;1.93;;;0.80;;
15358;SDS011;7779;49.596;11.070;2022-09-03T11:22:23;1.00;;;0.90;;
15358;SDS011;7779;49.596;11.070;2022-09-03T11:24:53;0.90;;;0.80;;
15358;SDS011;7779;49.596;11.070;2022-09-03T11:27:30;1.60;;;0.93;;
15358;SDS011;7779;49.596;11.070;2022-09-03T11:30:07;1.07;;;0.80;;
15358;SDS011;7779;49.596;11.070;2022-09-03T11:32:47;0.93;;;0.70;;
15358;SDS011;7779;49.596;11.070;2022-09-03T11:35:37;0.90;;;0.80;;
15358;SDS011;7779;49.596;11.070;2022-09-03T11:48:53;0.87;;;0.80;;
15358;SDS011;7779;49.596;11.070;2022-09-03T11:51:36;0.90;;;0.80;;
15358;SDS011;7779;49.596;11.070;2022-09-03T11:56:38;1.50;;;0.80;;
15358;SDS011;7779;49.596;11.070;2022-09-03T12:01:48;0.80;;;0.80;;
15358;SDS011;7779;49.596;11.070;2022-09-03T12:04:34;1.20;;;0.97;;
15358;SDS011;7779;49.596;11.070;2022-09-03T12:07:19;1.17;;;1.07;;
15358;SDS011;7779;49.596;11.070;2022-09-03T12:15:59;1.03;;;0.90;;
15358;SDS011;7779;49.596;11.070;2022-09-03T12:18:41;1.10;;;0.80;;
15358;SDS011;7779;49.596;11.070;2022-09-03T12:21:09;1.20;;;0.87;;
15358;SDS011;7779;49.596;11.070;2022-09-03T12:23:43;1.67;;;0.90;;
15358;SDS011;7779;49.596;11.070;2022-09-03T12:26:14;1.40;;;1.30;;
15358;SDS011;7779;49.596;11.070;2022-09-03T12:28:58;1.97;;;1.20;;
15358;SDS011;7779;49.596;11.070;2022-09-03T12:31:26;1.07;;;1.00;;
15358;SDS011;7779;49.596;11.070;2022-09-03T12:39:09;1.40;;;1.30;;
15358;SDS011;7779;49.596;11.070;2022-09-03T12:42:00;1.43;;;1.33;;
15358;SDS011;7779;49.596;11.070;2022-09-03T12:44:37;1.70;;;1.60;;
15358;SDS011;7779;49.596;11.070;2022-09-03T12:47:10;1.43;;;1.33;;
15358;SDS011;7779;49.596;11.070;2022-09-03T12:49:42;1.50;;;1.40;;
15358;SDS011;7779;49.596;11.070;2022-09-03T13:00:49;1.53;;;1.43;;
15358;SDS011;7779;49.596;11.070;2022-09-03T13:03:23;1.53;;;1.33;;
15358;SDS011;7779;49.596;11.070;2022-09-03T13:06:06;1.23;;;1.20;;
15358;SDS011;7779;49.596;11.070;2022-09-03T13:08:40;1.40;;;1.30;;
15358;SDS011;7779;49.596;11.070;2022-09-03T13:11:15;1.80;;;1.70;;
15358;SDS011;7779;49.596;11.070;2022-09-03T13:13:55;1.67;;;1.43;;
15358;SDS011;7779;49.596;11.070;2022-09-03T13:34:08;1.97;;;1.40;;
15358;SDS011;7779;49.596;11.070;2022-09-03T13:36:58;1.40;;;1.30;;
15358;SDS011;7779;49.596;11.070;2022-09-03T13:39:56;1.47;;;1.37;;
15358;SDS011;7779;49.596;11.070;2022-09-03T13:42:40;1.57;;;1.47;;
15358;SDS011;7779;49.596;11.070;2022-09-03T13:48:23;1.40;;;1.30;;
15358;SDS011;7779;49.596;11.070;2022-09-03T13:51:24;1.50;;;1.40;;
15358;SDS011;7779;49.596;11.070;2022-09-03T13:54:04;1.70;;;1.60;;
15358;SDS011;7779;49.596;11.070;2022-09-03T13:56:58;1.60;;;1.47;;
15358;SDS011;7779;49.596;11.070;2022-09-03T14:02:33;2.17;;;1.60;;
15358;SDS011;7779;49.596;11.070;2022-09-03T14:14:11;15.57;;;7.83;;
15358;SDS011;7779;49.596;11.070;2022-09-03T14:16:58;15.30;;;7.40;;
15358;SDS011;7779;49.596;11.070;2022-09-03T14:22:41;5.47;;;3.70;;
15358;SDS011;7779;49.596;11.070;2022-09-03T14:25:22;4.00;;;3.20;;
15358;SDS011;7779;49.596;11.070;2022-09-03T14:27:50;3.60;;;2.50;;
15358;SDS011;7779;49.596;11.070;2022-09-03T14:30:24;3.37;;;2.50;;
15358;SDS011;7779;49.596;11.070;2022-09-03T14:33:16;2.50;;;2.17;;
15358;SDS011;7779;49.596;11.070;2022-09-03T14:39:08;2.07;;;1.57;;
15358;SDS011;7779;49.596;11.070;2022-09-03T15:11:15;1.50;;;1.40;;
15358;SDS011;7779;49.596;11.070;2022-09-03T15:16:50;1.23;;;1.13;;
15358;SDS011;7779;49.596;11.070;2022-09-03T15:25:51;2.00;;;1.13;;
15358;SDS011;7779;49.596;11.070;2022-09-03T15:34:58;1.53;;;1.33;;
15358;SDS011;7779;49.596;11.070;2022-09-03T15:37:41;1.50;;;1.37;;
15358;SDS011;7779;49.596;11.070;2022-09-03T15:42:55;1.70;;;1.30;;
15358;SDS011;7779;49.596;11.070;2022-09-03T15:45:48;1.53;;;1.40;;
15358;SDS011;7779;49.596;11.070;2022-09-03T15:48:28;1.50;;;1.40;;
15358;SDS011;7779;49.596;11.070;2022-09-03T15:51:27;1.60;;;1.50;;
15358;SDS011;7779;49.596;11.070;2022-09-03T16:00:16;1.70;;;1.60;;
15358;SDS011;7779;49.596;11.070;2022-09-03T16:05:38;1.70;;;1.50;;
15358;SDS011;7779;49.596;11.070;2022-09-03T16:11:08;1.50;;;1.40;;
15358;SDS011;7779;49.596;11.070;2022-09-03T16:13:52;1.57;;;1.47;;
15358;SDS011;7779;49.596;11.070;2022-09-03T16:19:45;1.93;;;1.40;;
15358;SDS011;7779;49.596;11.070;2022-09-03T16:22:42;2.63;;;1.50;;
15358;SDS011;7779;49.596;11.070;2022-09-03T16:25:19;1.93;;;1.60;;
15358;SDS011;7779;49.596;11.070;2022-09-03T16:27:57;1.77;;;1.63;;
15358;SDS011;7779;49.596;11.070;2022-09-03T16:43:14;0.90;;;0.90;;
15358;SDS011;7779;49.596;11.070;2022-09-03T16:49:03;0.87;;;0.80;;
15358;SDS011;7779;49.596;11.070;2022-09-03T16:57:46;1.33;;;0.97;;
15358;SDS011;7779;49.596;11.070;2022-09-03T17:13:30;1.37;;;0.80;;
15358;SDS011;7779;49.596;11.070;2022-09-03T17:24:45;2.07;;;1.00;;
15358;SDS011;7779;49.596;11.070;2022-09-03T17:27:25;1.70;;;0.80;;
15358;SDS011;7779;49.596;11.070;2022-09-03T17:30:18;0.57;;;0.57;;
15358;SDS011;7779;49.596;11.070;2022-09-03T17:36:29;1.63;;;1.03;;
15358;SDS011;7779;49.596;11.070;2022-09-03T17:42:37;0.90;;;0.70;;
15358;SDS011;7779;49.596;11.070;2022-09-03T17:46:06;0.77;;;0.63;;
15358;SDS011;7779;49.596;11.070;2022-09-03T17:51:30;1.30;;;0.70;;
15358;SDS011;7779;49.596;11.070;2022-09-03T17:59:52;1.00;;;0.90;;
15358;SDS011;7779;49.596;11.070;2022-09-03T18:06:08;1.70;;;0.80;;
15358;SDS011;7779;49.596;11.070;2022-09-03T18:08:52;2.20;;;1.00;;
15358;SDS011;7779;49.596;11.070;2022-09-03T18:11:37;0.80;;;0.80;;
15358;SDS011;7779;49.596;11.070;2022-09-03T18:14:25;1.03;;;0.80;;
15358;SDS011;7779;49.596;11.070;2022-09-03T18:17:16;0.87;;;0.70;;
15358;SDS011;7779;49.596;11.070;2022-09-03T18:23:06;1.53;;;1.10;;
15358;SDS011;7779;49.596;11.070;2022-09-03T18:25:55;1.07;;;0.90;;
15358;SDS011;7779;49.596;11.070;2022-09-03T18:28:47;1.77;;;0.90;;
15358;SDS011;7779;49.596;11.070;2022-09-03T18:31:49;1.20;;;1.10;;
15358;SDS011;7779;49.596;11.070;2022-09-03T18:34:34;1.33;;;0.90;;
15358;SDS011;7779;49.596;11.070;2022-09-03T18:37:21;1.40;;;0.80;;
15358;SDS011;7779;49.596;11.070;2022-09-03T18:40:11;1.13;;;1.03;;
15358;SDS011;7779;49.596;11.070;2022-09-03T18:43:14;1.23;;;1.13;;
15358;SDS011;7779;49.596;11.070;2022-09-03T18:47:12;2.50;;;1.13;;
15358;SDS011;7779;49.596;11.070;2022-09-03T18:53:13;1.63;;;1.03;;
15358;SDS011;7779;49.596;11.070;2022-09-03T18:56:53;1.00;;;0.90;;
15358;SDS011;7779;49.596;11.070;2022-09-03T19:06:04;2.07;;;0.97;;
15358;SDS011;7779;49.596;11.070;2022-09-03T19:12:23;1.77;;;1.00;;
15358;SDS011;7779;49.596;11.070;2022-09-03T19:16:08;0.93;;;0.80;;
15358;SDS011;7779;49.596;11.070;2022-09-03T19:22:11;1.60;;;0.90;;
15358;SDS011;7779;49.596;11.070;2022-09-03T19:25:11;0.90;;;0.80;;
15358;SDS011;7779;49.596;11.070;2022-09-03T19:28:17;1.10;;;0.90;;
15358;SDS011;7779;49.596;11.070;2022-09-03T19:37:29;1.57;;;1.00;;
15358;SDS011;7779;49.596;11.070;2022-09-03T19:47:50;1.77;;;0.90;;
15358;SDS011;7779;49.596;11.070;2022-09-03T19:51:02;1.40;;;0.90;;
15358;SDS011;7779;49.596;11.070;2022-09-03T19:54:07;1.80;;;1.20;;
15358;SDS011;7779;49.596;11.070;2022-09-03T19:56:53;1.20;;;1.00;;
15358;SDS011;7779;49.596;11.070;2022-09-03T19:59:40;1.67;;;1.00;;
15358;SDS011;7779;49.596;11.070;2022-09-03T20:02:37;1.73;;;1.00;;
15358;SDS011;7779;49.596;11.070;2022-09-03T20:05:23;2.43;;;1.30;;
15358;SDS011;7779;49.596;11.070;2022-09-03T20:08:09;2.50;;;1.17;;
15358;SDS011;7779;49.596;11.070;2022-09-03T20:10:59;3.33;;;1.40;;
15358;SDS011;7779;49.596;11.070;2022-09-03T20:13:29;1.70;;;1.40;;
15358;SDS011;7779;49.596;11.070;2022-09-03T20:16:18;2.00;;;1.17;;
15358;SDS011;7779;49.596;11.070;2022-09-03T20:22:31;1.47;;;0.97;;
15358;SDS011;7779;49.596;11.070;2022-09-03T20:31:03;2.70;;;1.40;;
15358;SDS011;7779;49.596;11.070;2022-09-03T20:40:04;1.23;;;1.10;;
15358;SDS011;7779;49.596;11.070;2022-09-03T20:45:25;2.17;;;1.17;;
15358;SDS011;7779;49.596;11.070;2022-09-03T20:51:35;1.10;;;1.00;;
15358;SDS011;7779;49.596;11.070;2022-09-03T20:54:12;1.73;;;1.30;;
15358;SDS011;7779;49.596;11.070;2022-09-03T21:08:15;1.40;;;1.30;;
15358;SDS011;7779;49.596;11.070;2022-09-03T21:11:14;2.23;;;1.20;;
15358;SDS011;7779;49.596;11.070;2022-09-03T21:14:08;3.40;;;1.23;;
15358;SDS011;7779;49.596;11.070;2022-09-03T21:20:06;1.80;;;1.53;;
15358;SDS011;7779;49.596;11.070;2022-09-03T21:24:00;1.23;;;1.03;;
15358;SDS011;7779;49.596;11.070;2022-09-03T21:26:30;1.70;;;1.40;;
15358;SDS011;7779;49.596;11.070;2022-09-03T21:32:08;1.33;;;1.23;;
15358;SDS011;7779;49.596;11.070;2022-09-03T21:34:43;1.40;;;1.30;;
15358;SDS011;7779;49.596;11.070;2022-09-03T21:37:34;1.90;;;1.30;;
15358;SDS011;7779;49.596;11.070;2022-09-03T21:40:04;1.40;;;1.30;;
15358;SDS011;7779;49.596;11.070;2022-09-03T21:42:39;1.93;;;1.30;;
15358;SDS011;7779;49.596;11.070;2022-09-03T21:48:09;1.67;;;1.33;;
15358;SDS011;7779;49.596;11.070;2022-09-03T21:56:34;1.87;;;1.40;;
15358;SDS011;7779;49.596;11.070;2022-09-03T22:04:41;3.20;;;1.50;;
15358;SDS011;7779;49.596;11.070;2022-09-03T22:13:10;2.33;;;1.80;;
15358;SDS011;7779;49.596;11.070;2022-09-03T22:15:49;2.00;;;1.67;;
15358;SDS011;7779;49.596;11.070;2022-09-03T22:18:31;1.40;;;1.30;;
15358;SDS011;7779;49.596;11.070;2022-09-03T22:26:32;1.47;;;1.37;;
15358;SDS011;7779;49.596;11.070;2022-09-03T22:35:56;1.47;;;1.27;;
15358;SDS011;7779;49.596;11.070;2022-09-03T22:50:06;1.50;;;1.27;;